createdAt,value
2023-05-05T00:00:37.926Z,99182.22
2023-05-05T00:03:33.067Z,99184.11
2023-05-05T00:06:28.376Z,99182.16
2023-05-05T00:09:22.630Z,99178.56
2023-05-05T00:12:16.773Z,99176.59
2023-05-05T00:15:12.266Z,99176.88
2023-05-05T00:18:06.846Z,99171.58
2023-05-05T00:21:00.944Z,99169.05
2023-05-05T00:23:55.331Z,99169.15
2023-05-05T00:26:49.440Z,99165.35
2023-05-05T00:29:43.424Z,99157.52
2023-05-05T00:32:37.545Z,99156.38
2023-05-05T00:35:31.910Z,99152.82
2023-05-05T00:38:26.382Z,99150.68
2023-05-05T00:41:20.460Z,99145.08
2023-05-05T00:44:14.647Z,99143.59
2023-05-05T00:47:08.834Z,99143.94
2023-05-05T00:50:03.082Z,99140.58
2023-05-05T00:52:59.935Z,99141.33
2023-05-05T00:55:54.031Z,99139.96
2023-05-05T00:58:49.230Z,99143.91
2023-05-05T01:01:43.839Z,99148.58
2023-05-05T01:04:37.853Z,99149.75
2023-05-05T01:07:42.473Z,99152.08
2023-05-05T01:10:46.649Z,99152.77
2023-05-05T01:13:54.405Z,99151.01
2023-05-05T01:17:00.144Z,99148.80
2023-05-05T01:20:04.324Z,99144.91
2023-05-05T01:23:01.257Z,99142.66
2023-05-05T01:26:14.443Z,99137.45
2023-05-05T01:29:34.683Z,99131.38
2023-05-05T01:32:32.793Z,99125.96
2023-05-05T01:35:32.317Z,99132.35
2023-05-05T01:38:33.877Z,99132.59
2023-05-05T01:41:33.146Z,99129.58
2023-05-05T01:44:28.903Z,99131.57
2023-05-05T01:47:25.143Z,99132.77
2023-05-05T01:50:19.949Z,99132.42
2023-05-05T01:53:14.808Z,99131.02
2023-05-05T01:56:10.515Z,99130.52
2023-05-05T01:59:06.697Z,99129.84
2023-05-05T02:02:02.882Z,99134.30
2023-05-05T02:04:58.330Z,99143.67
2023-05-05T02:07:56.363Z,99142.63
2023-05-05T02:10:50.851Z,99138.97
2023-05-05T02:13:45.531Z,99134.23
2023-05-05T02:16:41.372Z,99129.80
2023-05-05T02:19:40.067Z,99131.20
2023-05-05T02:22:34.014Z,99129.80
2023-05-05T02:25:32.323Z,99129.56
2023-05-05T02:28:49.300Z,99123.33
2023-05-05T02:31:48.713Z,99120.30
2023-05-05T02:34:44.329Z,99121.09
2023-05-05T02:37:39.742Z,99119.65
2023-05-05T02:40:36.457Z,99119.98
2023-05-05T02:43:33.108Z,99118.08
2023-05-05T02:46:27.168Z,99120.04
2023-05-05T02:49:13.555Z,99118.13
2023-05-05T02:52:07.618Z,99126.24
2023-05-05T02:55:02.514Z,99125.04
2023-05-05T02:58:06.623Z,99121.20
2023-05-05T03:01:08.154Z,99123.80
2023-05-05T03:04:10.271Z,99115.73
2023-05-05T03:07:25.941Z,99112.11
2023-05-05T03:10:24.141Z,99109.36
2023-05-05T03:13:20.721Z,99109.09
2023-05-05T03:16:18.156Z,99113.23
2023-05-05T03:19:14.997Z,99121.08
2023-05-05T03:22:09.011Z,99124.63
2023-05-05T03:25:03.396Z,99125.30
2023-05-05T03:27:57.705Z,99124.59
2023-05-05T03:30:51.577Z,99125.03
2023-05-05T03:33:45.781Z,99126.45
2023-05-05T03:36:40.524Z,99122.33
2023-05-05T03:39:34.301Z,99122.39
2023-05-05T03:42:28.326Z,99123.09
2023-05-05T03:45:22.672Z,99123.06
2023-05-05T03:48:16.639Z,99122.46
2023-05-05T03:51:10.780Z,99124.54
2023-05-05T03:54:04.891Z,99114.90
2023-05-05T03:56:59.834Z,99113.48
2023-05-05T03:59:53.855Z,99117.71
2023-05-05T04:02:47.689Z,99120.73
2023-05-05T04:05:41.778Z,99123.08
2023-05-05T04:08:36.099Z,99128.03
2023-05-05T04:11:30.102Z,99127.73
2023-05-05T04:14:24.068Z,99127.50
2023-05-05T04:17:18.086Z,99131.14
2023-05-05T04:20:14.156Z,99132.55
2023-05-05T04:23:08.027Z,99136.33
2023-05-05T04:26:01.885Z,99137.96
2023-05-05T04:28:56.252Z,99140.20
2023-05-05T04:31:50.581Z,99141.71
2023-05-05T04:34:44.306Z,99140.62
2023-05-05T04:37:37.998Z,99147.64
2023-05-05T04:40:31.805Z,99147.29
2023-05-05T04:43:25.620Z,99145.41
2023-05-05T04:46:19.823Z,99148.73
2023-05-05T04:49:13.971Z,99150.52
2023-05-05T04:52:08.233Z,99150.77
2023-05-05T04:55:02.360Z,99153.15
2023-05-05T04:57:56.525Z,99149.61
2023-05-05T05:00:50.520Z,99151.59
2023-05-05T05:03:44.641Z,99155.16
2023-05-05T05:06:38.377Z,99163.16
2023-05-05T05:09:32.262Z,99170.32
2023-05-05T05:12:26.211Z,99165.05
2023-05-05T05:15:20.445Z,99168.69
2023-05-05T05:18:14.317Z,99167.85
2023-05-05T05:21:08.274Z,99169.23
2023-05-05T05:24:02.404Z,99171.09
2023-05-05T05:26:56.400Z,99172.25
2023-05-05T05:29:50.305Z,99177.02
2023-05-05T05:32:44.130Z,99181.48
2023-05-05T05:35:37.949Z,99186.44
2023-05-05T05:38:31.530Z,99185.23
2023-05-05T05:41:25.373Z,99188.19
2023-05-05T05:44:19.420Z,99192.82
2023-05-05T05:47:13.529Z,99193.77
2023-05-05T05:50:09.454Z,99190.63
2023-05-05T05:53:03.990Z,99191.50
2023-05-05T05:55:58.335Z,99191.95
2023-05-05T05:58:52.515Z,99193.21
2023-05-05T06:01:46.519Z,99200.06
2023-05-05T06:04:40.842Z,99199.57
2023-05-05T06:07:34.592Z,99197.11
2023-05-05T06:10:29.007Z,99190.27
2023-05-05T06:13:22.947Z,99189.17
2023-05-05T06:16:17.179Z,99185.89
2023-05-05T06:19:11.343Z,99179.70
2023-05-05T06:22:05.166Z,99180.28
2023-05-05T06:24:58.943Z,99181.33
2023-05-05T06:27:53.333Z,99183.65
2023-05-05T06:30:47.163Z,99188.70
2023-05-05T06:33:41.050Z,99182.80
2023-05-05T06:36:35.271Z,99188.38
2023-05-05T06:39:29.089Z,99183.36
2023-05-05T06:42:23.015Z,99189.04
2023-05-05T06:45:17.230Z,99185.02
2023-05-05T06:48:11.267Z,99184.49
2023-05-05T06:51:05.387Z,99178.45
2023-05-05T06:53:59.532Z,99177.24
2023-05-05T06:56:53.196Z,99177.98
2023-05-05T06:59:47.036Z,99178.74
2023-05-05T07:02:40.918Z,99178.84
2023-05-05T07:05:34.927Z,99179.13
2023-05-05T07:08:29.288Z,99177.21
2023-05-05T07:11:23.365Z,99175.84
2023-05-05T07:14:14.340Z,99173.67
2023-05-05T07:17:08.478Z,99173.80
2023-05-05T07:20:03.029Z,99174.50
2023-05-05T07:22:56.604Z,99166.67
2023-05-05T07:25:50.684Z,99167.93
2023-05-05T07:28:43.116Z,99162.56
2023-05-05T07:31:37.010Z,99163.73
2023-05-05T07:34:32.761Z,99160.57
2023-05-05T07:37:26.769Z,99164.95
2023-05-05T07:40:20.717Z,99165.02
2023-05-05T07:43:14.539Z,99160.45
2023-05-05T07:46:08.650Z,99163.09
2023-05-05T07:49:02.530Z,99164.88
2023-05-05T07:51:56.604Z,99160.98
2023-05-05T07:54:50.524Z,99158.73
2023-05-05T07:57:44.201Z,99155.61
2023-05-05T08:00:37.833Z,99159.52
2023-05-05T08:03:31.796Z,99157.31
2023-05-05T08:06:25.562Z,99150.64
2023-05-05T08:09:14.153Z,99149.67
2023-05-05T08:12:08.374Z,99147.16
2023-05-05T08:15:02.697Z,99149.93
2023-05-05T08:17:56.876Z,99143.40
2023-05-05T08:20:50.646Z,99145.41
2023-05-05T08:23:44.991Z,99149.69
2023-05-05T08:26:38.768Z,99153.02
2023-05-05T08:29:32.567Z,99148.09
2023-05-05T08:32:27.845Z,99149.53
2023-05-05T08:35:24.196Z,99149.45
2023-05-05T08:38:19.100Z,99149.30
2023-05-05T08:41:18.291Z,99144.52
2023-05-05T08:44:13.610Z,99139.42
2023-05-05T08:47:09.416Z,99133.35
2023-05-05T08:50:05.779Z,99139.53
2023-05-05T08:53:11.509Z,99137.70
2023-05-05T08:56:08.677Z,99139.35
2023-05-05T08:59:03.582Z,99130.43
2023-05-05T09:01:58.861Z,99129.83
2023-05-05T09:04:53.066Z,99133.01
2023-05-05T09:07:47.278Z,99131.92
2023-05-05T09:10:43.052Z,99127.62
2023-05-05T09:13:36.905Z,99129.20
2023-05-05T09:16:30.735Z,99121.77
2023-05-05T09:19:24.479Z,99123.80
2023-05-05T09:22:18.489Z,99123.14
2023-05-05T09:25:21.244Z,99122.91
2023-05-05T09:28:17.405Z,99123.83
2023-05-05T09:31:19.840Z,99123.45
2023-05-05T09:34:19.622Z,99116.95
2023-05-05T09:37:14.806Z,99118.76
2023-05-05T09:40:10.744Z,99117.46
2023-05-05T09:43:06.879Z,99117.67
2023-05-05T09:46:10.313Z,99123.68
2023-05-05T09:49:18.028Z,99125.86
2023-05-05T09:52:18.098Z,99127.98
2023-05-05T09:55:20.889Z,99123.83
2023-05-05T09:58:24.846Z,99119.98
2023-05-05T10:01:27.196Z,99119.55
2023-05-05T10:04:31.901Z,99117.25
2023-05-05T10:07:28.014Z,99123.00
2023-05-05T10:10:36.412Z,99114.30
2023-05-05T10:13:54.400Z,99111.27
2023-05-05T10:16:52.577Z,99114.34
2023-05-05T10:19:47.510Z,99111.00
2023-05-05T10:22:44.817Z,99108.52
2023-05-05T10:25:51.981Z,99110.79
2023-05-05T10:28:53.040Z,99108.19
2023-05-05T10:31:54.327Z,99108.58
2023-05-05T10:34:55.241Z,99103.36
2023-05-05T10:37:49.678Z,99106.17
2023-05-05T10:40:46.526Z,99103.10
2023-05-05T10:43:41.707Z,99097.33
2023-05-05T10:46:35.750Z,99097.75
2023-05-05T10:49:48.451Z,99096.39
2023-05-05T10:52:49.146Z,99092.56
2023-05-05T10:55:53.460Z,99094.84
2023-05-05T10:58:59.133Z,99092.94
2023-05-05T11:01:55.173Z,99082.04
2023-05-05T11:05:17.849Z,99085.77
2023-05-05T11:08:27.396Z,99080.82
2023-05-05T11:11:40.097Z,99079.51
2023-05-05T11:14:33.934Z,99079.27
2023-05-05T11:17:50.232Z,99079.27
2023-05-05T11:21:18.375Z,99073.69
2023-05-05T11:24:31.366Z,99073.19
2023-05-05T11:27:44.916Z,99075.41
2023-05-05T11:30:59.619Z,99076.71
2023-05-05T11:33:53.406Z,99076.67
2023-05-05T11:36:47.150Z,99071.19
2023-05-05T11:40:00.999Z,99065.91
2023-05-05T11:43:19.694Z,99073.83
2023-05-05T11:46:17.613Z,99059.94
2023-05-05T11:49:11.420Z,99061.36
2023-05-05T11:52:07.468Z,99063.31
2023-05-05T11:55:06.613Z,99062.95
2023-05-05T11:58:00.593Z,99063.20
2023-05-05T12:00:54.231Z,99062.83
2023-05-05T12:03:48.119Z,99059.16
2023-05-05T12:06:42.447Z,99059.23
2023-05-05T12:09:36.268Z,99054.37
2023-05-05T12:12:42.217Z,99052.05
2023-05-05T12:15:36.969Z,99051.11
2023-05-05T12:18:30.700Z,99048.90
2023-05-05T12:21:24.572Z,99049.83
2023-05-05T12:24:18.870Z,99053.59
2023-05-05T12:27:15.930Z,99047.89
2023-05-05T12:30:19.541Z,99048.59
2023-05-05T12:33:13.175Z,99044.66
2023-05-05T12:36:08.332Z,99044.21
2023-05-05T12:39:02.066Z,99044.25
2023-05-05T12:42:05.027Z,99042.27
2023-05-05T12:44:58.675Z,99044.15
2023-05-05T12:47:52.390Z,99044.36
2023-05-05T12:50:45.886Z,99040.96
2023-05-05T12:53:39.484Z,99036.74
2023-05-05T12:56:45.619Z,99034.46
2023-05-05T12:59:39.315Z,99033.22
2023-05-05T13:02:39.307Z,99028.24
2023-05-05T13:05:37.185Z,99022.05
2023-05-05T13:08:47.114Z,99019.52
2023-05-05T13:11:41.657Z,99023.84
2023-05-05T13:14:36.318Z,99018.58
2023-05-05T13:17:30.057Z,99012.59
2023-05-05T13:20:23.700Z,99012.98
2023-05-05T13:23:17.337Z,99013.25
2023-05-05T13:26:11.157Z,99014.21
2023-05-05T13:29:05.006Z,99007.42
2023-05-05T13:31:58.742Z,99011.09
2023-05-05T13:34:52.502Z,99009.08
2023-05-05T13:37:47.511Z,99005.70
2023-05-05T13:40:41.190Z,99002.55
2023-05-05T13:43:34.889Z,98996.39
2023-05-05T13:46:28.590Z,98991.39
2023-05-05T13:49:22.478Z,98987.80
2023-05-05T13:52:16.218Z,98991.31
2023-05-05T13:55:12.200Z,98991.52
2023-05-05T13:58:06.423Z,98989.16
2023-05-05T14:01:00.311Z,98981.94
2023-05-05T14:03:56.932Z,98988.95
2023-05-05T14:06:51.140Z,98982.73
2023-05-05T14:09:44.736Z,98976.56
2023-05-05T14:12:38.438Z,98972.11
2023-05-05T14:15:32.167Z,98973.24
2023-05-05T14:18:25.845Z,98966.99
2023-05-05T14:21:19.511Z,98965.58
2023-05-05T14:24:13.445Z,98968.59
2023-05-05T14:27:07.255Z,98971.98
2023-05-05T14:30:00.885Z,98973.90
2023-05-05T14:32:54.496Z,98975.13
2023-05-05T14:35:48.193Z,98977.23
2023-05-05T14:38:42.862Z,98973.89
2023-05-05T14:41:36.673Z,98975.46
2023-05-05T14:44:30.390Z,98977.69
2023-05-05T14:47:25.523Z,98975.02
2023-05-05T14:50:19.370Z,98975.12
2023-05-05T14:53:13.588Z,98973.55
2023-05-05T14:56:08.322Z,98975.01
2023-05-05T14:59:02.085Z,98978.50
2023-05-05T15:01:56.455Z,98979.95
2023-05-05T15:04:50.409Z,98980.10
2023-05-05T15:07:44.363Z,98974.77
2023-05-05T15:10:38.270Z,98980.29
2023-05-05T15:13:32.187Z,98979.39
2023-05-05T15:16:25.949Z,98983.52
2023-05-05T15:19:14.696Z,98979.46
2023-05-05T15:22:08.864Z,98974.63
2023-05-05T15:25:02.942Z,98971.88
2023-05-05T15:27:58.776Z,98970.23
2023-05-05T15:30:52.593Z,98965.41
2023-05-05T15:33:48.507Z,98972.83
2023-05-05T15:36:42.258Z,98973.91
2023-05-05T15:39:35.930Z,98968.70
2023-05-05T15:42:29.601Z,98966.18
2023-05-05T15:45:23.267Z,98965.75
2023-05-05T15:48:16.846Z,98964.45
2023-05-05T15:51:12.368Z,98960.28
2023-05-05T15:54:07.010Z,98953.50
2023-05-05T15:57:01.268Z,98961.92
2023-05-05T15:59:56.804Z,98958.72
2023-05-05T16:02:50.845Z,98957.92
2023-05-05T16:05:44.645Z,98953.38
2023-05-05T16:08:39.183Z,98948.98
2023-05-05T16:11:33.536Z,98947.86
2023-05-05T16:14:27.809Z,98953.50
2023-05-05T16:17:22.800Z,98951.42
2023-05-05T16:20:17.402Z,98951.48
2023-05-05T16:23:11.303Z,98950.04
2023-05-05T16:26:05.494Z,98954.34
2023-05-05T16:28:59.198Z,98953.69
2023-05-05T16:31:52.917Z,98953.03
2023-05-05T16:34:46.770Z,98955.27
2023-05-05T16:37:40.765Z,98958.30
2023-05-05T16:40:36.833Z,98960.76
2023-05-05T16:43:31.182Z,98958.11
2023-05-05T16:46:25.058Z,98958.80
2023-05-05T16:49:18.945Z,98961.98
2023-05-05T16:52:12.657Z,98956.95
2023-05-05T16:55:07.251Z,98957.77
2023-05-05T16:58:01.765Z,98960.14
2023-05-05T17:00:55.931Z,98959.59
2023-05-05T17:03:49.796Z,98961.16
2023-05-05T17:06:43.897Z,98963.44
2023-05-05T17:09:38.005Z,98963.70
2023-05-05T17:12:32.101Z,98963.65
2023-05-05T17:15:26.207Z,98967.61
2023-05-05T17:18:21.818Z,98961.51
2023-05-05T17:21:15.800Z,98962.56
2023-05-05T17:24:11.407Z,98970.55
2023-05-05T17:27:05.446Z,98974.94
2023-05-05T17:29:59.300Z,98976.16
2023-05-05T17:32:53.070Z,98979.33
2023-05-05T17:35:47.226Z,98980.61
2023-05-05T17:38:41.416Z,98987.02
2023-05-05T17:41:35.307Z,98987.34
2023-05-05T17:44:29.271Z,98988.41
2023-05-05T17:47:24.172Z,98988.36
2023-05-05T17:50:18.243Z,98986.80
2023-05-05T17:53:12.391Z,98983.80
2023-05-05T17:56:08.749Z,98984.80
2023-05-05T17:59:03.227Z,98983.83
2023-05-05T18:01:56.986Z,98983.78
2023-05-05T18:04:50.758Z,98990.48
2023-05-05T18:07:44.875Z,98990.53
2023-05-05T18:10:38.856Z,98991.66
2023-05-05T18:13:32.739Z,98993.60
2023-05-05T18:16:26.621Z,98992.21
2023-05-05T18:19:18.096Z,98990.80
2023-05-05T18:22:12.538Z,98991.50
2023-05-05T18:25:08.276Z,98996.55
2023-05-05T18:28:02.081Z,98996.95
2023-05-05T18:30:56.193Z,99001.40
2023-05-05T18:33:50.202Z,99000.19
2023-05-05T18:36:44.150Z,98996.03
2023-05-05T18:39:38.198Z,98994.49
2023-05-05T18:42:31.988Z,98990.55
2023-05-05T18:45:26.186Z,98997.02
2023-05-05T18:48:20.379Z,99007.11
2023-05-05T18:51:14.042Z,99008.34
2023-05-05T18:54:08.803Z,99005.39
2023-05-05T18:57:03.586Z,99004.69
2023-05-05T18:59:57.413Z,99004.13
2023-05-05T19:02:51.314Z,99006.91
2023-05-05T19:05:45.304Z,99003.86
2023-05-05T19:08:39.083Z,99006.34
2023-05-05T19:11:32.934Z,99011.20
2023-05-05T19:14:26.906Z,99009.04
2023-05-05T19:17:20.841Z,99003.10
2023-05-05T19:20:15.835Z,99003.77
2023-05-05T19:23:09.872Z,99002.06
2023-05-05T19:26:05.619Z,99002.54
2023-05-05T19:29:00.273Z,99002.52
2023-05-05T19:31:54.437Z,99001.13
2023-05-05T19:34:48.184Z,99001.90
2023-05-05T19:37:42.307Z,98999.21
2023-05-05T19:40:36.360Z,98995.80
2023-05-05T19:43:30.147Z,99002.73
2023-05-05T19:46:24.063Z,99000.48
2023-05-05T19:49:17.916Z,99000.98
2023-05-05T19:52:11.867Z,98999.91
2023-05-05T19:55:06.793Z,99000.73
2023-05-05T19:58:00.854Z,98998.98
2023-05-05T20:00:54.825Z,98998.86
2023-05-05T20:03:49.505Z,99002.02
2023-05-05T20:06:44.681Z,99003.14
2023-05-05T20:09:39.489Z,99006.86
2023-05-05T20:12:33.400Z,99001.45
2023-05-05T20:15:27.386Z,98997.86
2023-05-05T20:18:21.395Z,98994.23
2023-05-05T20:21:16.598Z,98990.98
2023-05-05T20:24:11.757Z,98990.23
2023-05-05T20:27:06.341Z,98986.70
2023-05-05T20:30:00.100Z,98990.96
2023-05-05T20:32:54.349Z,98994.26
2023-05-05T20:35:48.349Z,98991.14
2023-05-05T20:38:42.563Z,98990.89
2023-05-05T20:41:39.384Z,98987.99
2023-05-05T20:44:14.768Z,98986.73
2023-05-05T20:47:08.817Z,98983.70
2023-05-05T20:50:02.777Z,98981.82
2023-05-05T20:53:21.181Z,98981.84
2023-05-05T20:56:16.483Z,98980.31
2023-05-05T20:59:14.660Z,98984.42
2023-05-05T21:02:09.081Z,98984.27
2023-05-05T21:05:03.325Z,98978.96
2023-05-05T21:07:59.987Z,98977.52
2023-05-05T21:10:53.427Z,98976.39
2023-05-05T21:13:47.712Z,98979.02
2023-05-05T21:16:41.998Z,98980.14
2023-05-05T21:19:35.947Z,98975.64
2023-05-05T21:22:30.108Z,98977.02
2023-05-05T21:25:25.513Z,98979.14
2023-05-05T21:28:19.648Z,98980.89
2023-05-05T21:31:21.646Z,98984.92
2023-05-05T21:34:14.887Z,98979.79
2023-05-05T21:37:08.958Z,98983.30
2023-05-05T21:40:03.028Z,98982.44
2023-05-05T21:42:57.330Z,98975.11
2023-05-05T21:46:11.511Z,98974.80
2023-05-05T21:49:28.071Z,98970.73
2023-05-05T21:52:20.604Z,98968.36
2023-05-05T21:55:14.479Z,98965.19
2023-05-05T21:58:08.225Z,98965.91
2023-05-05T22:01:02.670Z,98961.86
2023-05-05T22:03:56.885Z,98956.56
2023-05-05T22:06:51.057Z,98955.13
2023-05-05T22:09:45.531Z,98953.48
2023-05-05T22:12:39.323Z,98953.36
2023-05-05T22:15:45.355Z,98952.98
2023-05-05T22:18:41.154Z,98953.12
2023-05-05T22:21:35.397Z,98955.01
2023-05-05T22:24:29.219Z,98950.46
2023-05-05T22:27:23.253Z,98946.73
2023-05-05T22:30:18.317Z,98944.08
2023-05-05T22:33:12.374Z,98945.37
2023-05-05T22:36:06.587Z,98950.01
2023-05-05T22:39:00.370Z,98949.63
2023-05-05T22:41:54.359Z,98951.04
2023-05-05T22:44:48.298Z,98948.08
2023-05-05T22:47:42.138Z,98945.81
2023-05-05T22:50:36.147Z,98949.42
2023-05-05T22:53:29.779Z,98946.05
2023-05-05T22:56:23.794Z,98940.73
2023-05-05T22:59:17.539Z,98938.38
2023-05-05T23:02:11.451Z,98926.63
2023-05-05T23:05:05.575Z,98923.80
2023-05-05T23:08:01.557Z,98920.09
2023-05-05T23:10:57.371Z,98921.55
2023-05-05T23:13:51.172Z,98921.89
2023-05-05T23:16:45.470Z,98924.45
2023-05-05T23:19:39.840Z,98924.34
2023-05-05T23:22:33.756Z,98921.79
2023-05-05T23:25:27.768Z,98922.52
2023-05-05T23:28:22.634Z,98921.63
2023-05-05T23:31:16.610Z,98926.23
2023-05-05T23:34:11.160Z,98926.23
2023-05-05T23:37:06.316Z,98922.96
2023-05-05T23:40:00.353Z,98927.44
2023-05-05T23:42:54.468Z,98928.96
2023-05-05T23:45:48.370Z,98927.90
2023-05-05T23:48:42.369Z,98929.98
2023-05-05T23:51:36.400Z,98921.55
2023-05-05T23:54:19.081Z,98915.44
2023-05-05T23:57:13.198Z,98909.71
